sensor_id;sensor_type;location;lat;lon;timestamp;P1;durP1;ratioP1;P2;durP2;ratioP2
61704;SDS011;47627;48.078;11.522;2024-01-30T00:02:24;13.82;;;8.75;;
61704;SDS011;47627;48.078;11.522;2024-01-30T00:04:49;14.63;;;8.40;;
61704;SDS011;47627;48.078;11.522;2024-01-30T00:07:14;13.95;;;7.68;;
61704;SDS011;47627;48.078;11.522;2024-01-30T00:09:39;15.65;;;8.63;;
61704;SDS011;47627;48.078;11.522;2024-01-30T00:12:05;13.30;;;8.00;;
61704;SDS011;47627;48.078;11.522;2024-01-30T00:14:31;12.23;;;7.90;;
61704;SDS011;47627;48.078;11.522;2024-01-30T00:16:56;14.68;;;8.05;;
61704;SDS011;47627;48.078;11.522;2024-01-30T00:19:21;14.15;;;7.93;;
61704;SDS011;47627;48.078;11.522;2024-01-30T00:21:47;16.00;;;8.75;;
61704;SDS011;47627;48.078;11.522;2024-01-30T00:24:12;14.07;;;7.93;;
61704;SDS011;47627;48.078;11.522;2024-01-30T00:26:37;13.40;;;7.68;;
61704;SDS011;47627;48.078;11.522;2024-01-30T00:29:03;13.90;;;7.90;;
61704;SDS011;47627;48.078;11.522;2024-01-30T00:31:28;12.73;;;6.93;;
61704;SDS011;47627;48.078;11.522;2024-01-30T00:33:53;11.32;;;7.15;;
61704;SDS011;47627;48.078;11.522;2024-01-30T00:36:18;13.65;;;7.85;;
61704;SDS011;47627;48.078;11.522;2024-01-30T00:38:44;12.43;;;7.57;;
61704;SDS011;47627;48.078;11.522;2024-01-30T00:41:09;11.95;;;7.93;;
61704;SDS011;47627;48.078;11.522;2024-01-30T00:43:34;12.27;;;7.35;;
61704;SDS011;47627;48.078;11.522;2024-01-30T00:46:00;11.32;;;7.10;;
61704;SDS011;47627;48.078;11.522;2024-01-30T00:48:25;15.85;;;7.95;;
61704;SDS011;47627;48.078;11.522;2024-01-30T00:50:50;11.45;;;6.93;;
61704;SDS011;47627;48.078;11.522;2024-01-30T00:53:16;12.93;;;6.90;;
61704;SDS011;47627;48.078;11.522;2024-01-30T00:55:41;15.02;;;7.43;;
61704;SDS011;47627;48.078;11.522;2024-01-30T00:58:06;9.10;;;6.43;;
61704;SDS011;47627;48.078;11.522;2024-01-30T01:00:32;11.25;;;6.68;;
61704;SDS011;47627;48.078;11.522;2024-01-30T01:02:58;9.63;;;6.80;;
61704;SDS011;47627;48.078;11.522;2024-01-30T01:05:24;11.57;;;6.90;;
61704;SDS011;47627;48.078;11.522;2024-01-30T01:07:49;11.40;;;7.15;;
61704;SDS011;47627;48.078;11.522;2024-01-30T01:10:14;12.02;;;7.38;;
61704;SDS011;47627;48.078;11.522;2024-01-30T01:12:41;11.75;;;7.45;;
61704;SDS011;47627;48.078;11.522;2024-01-30T01:15:06;13.27;;;7.00;;
61704;SDS011;47627;48.078;11.522;2024-01-30T01:17:34;12.07;;;7.47;;
61704;SDS011;47627;48.078;11.522;2024-01-30T01:20:00;10.90;;;7.00;;
61704;SDS011;47627;48.078;11.522;2024-01-30T01:22:25;10.70;;;7.25;;
61704;SDS011;47627;48.078;11.522;2024-01-30T01:24:50;11.10;;;6.75;;
61704;SDS011;47627;48.078;11.522;2024-01-30T01:27:16;10.65;;;6.78;;
61704;SDS011;47627;48.078;11.522;2024-01-30T01:29:42;9.77;;;6.45;;
61704;SDS011;47627;48.078;11.522;2024-01-30T01:32:08;9.52;;;6.50;;
61704;SDS011;47627;48.078;11.522;2024-01-30T01:34:33;9.57;;;6.65;;
61704;SDS011;47627;48.078;11.522;2024-01-30T01:36:58;10.32;;;6.82;;
61704;SDS011;47627;48.078;11.522;2024-01-30T01:39:24;9.63;;;6.90;;
61704;SDS011;47627;48.078;11.522;2024-01-30T01:41:49;13.77;;;7.18;;
61704;SDS011;47627;48.078;11.522;2024-01-30T01:44:14;13.00;;;7.13;;
61704;SDS011;47627;48.078;11.522;2024-01-30T01:46:39;10.55;;;6.45;;
61704;SDS011;47627;48.078;11.522;2024-01-30T01:49:05;10.82;;;6.75;;
61704;SDS011;47627;48.078;11.522;2024-01-30T01:51:31;11.57;;;6.93;;
61704;SDS011;47627;48.078;11.522;2024-01-30T01:53:57;11.50;;;6.95;;
61704;SDS011;47627;48.078;11.522;2024-01-30T01:56:22;9.93;;;6.75;;
61704;SDS011;47627;48.078;11.522;2024-01-30T01:58:48;12.40;;;6.60;;
61704;SDS011;47627;48.078;11.522;2024-01-30T02:01:15;9.45;;;6.63;;
61704;SDS011;47627;48.078;11.522;2024-01-30T02:03:41;9.35;;;6.28;;
61704;SDS011;47627;48.078;11.522;2024-01-30T02:06:07;10.18;;;6.75;;
61704;SDS011;47627;48.078;11.522;2024-01-30T02:08:32;9.80;;;6.90;;
61704;SDS011;47627;48.078;11.522;2024-01-30T02:10:58;12.48;;;7.18;;
61704;SDS011;47627;48.078;11.522;2024-01-30T02:13:23;11.38;;;6.32;;
61704;SDS011;47627;48.078;11.522;2024-01-30T02:15:49;11.32;;;7.05;;
61704;SDS011;47627;48.078;11.522;2024-01-30T02:18:15;13.07;;;7.30;;
61704;SDS011;47627;48.078;11.522;2024-01-30T02:20:40;12.77;;;6.95;;
61704;SDS011;47627;48.078;11.522;2024-01-30T02:23:06;10.73;;;6.75;;
61704;SDS011;47627;48.078;11.522;2024-01-30T02:25:38;11.57;;;6.82;;
61704;SDS011;47627;48.078;11.522;2024-01-30T02:28:03;10.15;;;6.85;;
61704;SDS011;47627;48.078;11.522;2024-01-30T02:30:29;10.38;;;6.40;;
61704;SDS011;47627;48.078;11.522;2024-01-30T02:32:59;9.50;;;6.32;;
61704;SDS011;47627;48.078;11.522;2024-01-30T02:35:25;10.48;;;6.50;;
61704;SDS011;47627;48.078;11.522;2024-01-30T02:37:50;15.05;;;7.25;;
61704;SDS011;47627;48.078;11.522;2024-01-30T02:40:15;10.30;;;7.03;;
61704;SDS011;47627;48.078;11.522;2024-01-30T02:42:40;12.15;;;6.60;;
61704;SDS011;47627;48.078;11.522;2024-01-30T02:45:08;9.18;;;6.43;;
61704;SDS011;47627;48.078;11.522;2024-01-30T02:47:33;10.93;;;6.07;;
61704;SDS011;47627;48.078;11.522;2024-01-30T02:49:58;10.60;;;6.32;;
61704;SDS011;47627;48.078;11.522;2024-01-30T02:52:24;9.48;;;6.45;;
61704;SDS011;47627;48.078;11.522;2024-01-30T02:54:49;12.60;;;7.05;;
61704;SDS011;47627;48.078;11.522;2024-01-30T02:57:14;10.38;;;6.18;;
61704;SDS011;47627;48.078;11.522;2024-01-30T02:59:39;9.43;;;6.43;;
61704;SDS011;47627;48.078;11.522;2024-01-30T03:02:04;9.38;;;6.55;;
61704;SDS011;47627;48.078;11.522;2024-01-30T03:04:30;12.00;;;6.53;;
61704;SDS011;47627;48.078;11.522;2024-01-30T03:06:55;10.75;;;6.30;;
61704;SDS011;47627;48.078;11.522;2024-01-30T03:09:20;11.32;;;6.60;;
61704;SDS011;47627;48.078;11.522;2024-01-30T03:11:46;12.77;;;6.63;;
61704;SDS011;47627;48.078;11.522;2024-01-30T03:14:11;11.13;;;5.97;;
61704;SDS011;47627;48.078;11.522;2024-01-30T03:16:37;9.88;;;6.22;;
61704;SDS011;47627;48.078;11.522;2024-01-30T03:19:02;11.85;;;6.20;;
61704;SDS011;47627;48.078;11.522;2024-01-30T03:21:28;10.45;;;6.05;;
61704;SDS011;47627;48.078;11.522;2024-01-30T03:23:54;9.55;;;5.85;;
61704;SDS011;47627;48.078;11.522;2024-01-30T03:26:19;9.18;;;6.10;;
61704;SDS011;47627;48.078;11.522;2024-01-30T03:28:44;9.77;;;6.10;;
61704;SDS011;47627;48.078;11.522;2024-01-30T03:31:09;8.95;;;6.55;;
61704;SDS011;47627;48.078;11.522;2024-01-30T03:33:36;9.32;;;5.55;;
61704;SDS011;47627;48.078;11.522;2024-01-30T03:36:04;8.73;;;5.65;;
61704;SDS011;47627;48.078;11.522;2024-01-30T03:38:30;12.05;;;5.93;;
61704;SDS011;47627;48.078;11.522;2024-01-30T03:40:57;12.40;;;5.93;;
61704;SDS011;47627;48.078;11.522;2024-01-30T03:43:23;11.02;;;6.10;;
61704;SDS011;47627;48.078;11.522;2024-01-30T03:45:49;8.43;;;5.95;;
61704;SDS011;47627;48.078;11.522;2024-01-30T03:48:14;9.10;;;5.47;;
61704;SDS011;47627;48.078;11.522;2024-01-30T03:50:40;10.88;;;5.70;;
61704;SDS011;47627;48.078;11.522;2024-01-30T03:53:05;8.63;;;5.38;;
61704;SDS011;47627;48.078;11.522;2024-01-30T03:55:30;7.03;;;5.35;;
61704;SDS011;47627;48.078;11.522;2024-01-30T03:57:55;8.25;;;5.63;;
61704;SDS011;47627;48.078;11.522;2024-01-30T04:00:21;8.40;;;5.20;;
61704;SDS011;47627;48.078;11.522;2024-01-30T04:02:47;8.05;;;5.00;;
61704;SDS011;47627;48.078;11.522;2024-01-30T04:05:12;7.60;;;4.55;;
61704;SDS011;47627;48.078;11.522;2024-01-30T04:07:37;7.30;;;4.88;;
61704;SDS011;47627;48.078;11.522;2024-01-30T04:10:03;8.02;;;4.68;;
61704;SDS011;47627;48.078;11.522;2024-01-30T04:12:31;7.25;;;5.20;;
61704;SDS011;47627;48.078;11.522;2024-01-30T04:14:56;6.95;;;4.43;;
61704;SDS011;47627;48.078;11.522;2024-01-30T04:17:21;6.55;;;4.25;;
61704;SDS011;47627;48.078;11.522;2024-01-30T04:19:46;6.32;;;4.30;;
61704;SDS011;47627;48.078;11.522;2024-01-30T04:22:11;6.90;;;4.28;;
61704;SDS011;47627;48.078;11.522;2024-01-30T04:24:37;7.03;;;4.68;;
61704;SDS011;47627;48.078;11.522;2024-01-30T04:27:02;6.47;;;4.50;;
61704;SDS011;47627;48.078;11.522;2024-01-30T04:29:27;6.75;;;4.45;;
61704;SDS011;47627;48.078;11.522;2024-01-30T04:31:53;8.43;;;4.70;;
61704;SDS011;47627;48.078;11.522;2024-01-30T04:34:18;6.45;;;4.43;;
61704;SDS011;47627;48.078;11.522;2024-01-30T04:36:44;7.30;;;4.45;;
61704;SDS011;47627;48.078;11.522;2024-01-30T04:39:10;7.13;;;4.38;;
61704;SDS011;47627;48.078;11.522;2024-01-30T04:41:35;7.05;;;4.47;;
61704;SDS011;47627;48.078;11.522;2024-01-30T04:44:00;7.53;;;4.78;;
61704;SDS011;47627;48.078;11.522;2024-01-30T04:46:26;6.28;;;4.18;;
61704;SDS011;47627;48.078;11.522;2024-01-30T04:48:51;7.07;;;4.10;;
61704;SDS011;47627;48.078;11.522;2024-01-30T04:51:16;6.63;;;3.72;;
61704;SDS011;47627;48.078;11.522;2024-01-30T04:53:42;6.88;;;4.28;;
61704;SDS011;47627;48.078;11.522;2024-01-30T04:56:07;8.25;;;4.10;;
61704;SDS011;47627;48.078;11.522;2024-01-30T04:58:32;5.82;;;4.13;;
61704;SDS011;47627;48.078;11.522;2024-01-30T05:00:57;5.22;;;3.90;;
61704;SDS011;47627;48.078;11.522;2024-01-30T05:03:22;7.05;;;4.32;;
61704;SDS011;47627;48.078;11.522;2024-01-30T05:05:49;8.48;;;4.53;;
61704;SDS011;47627;48.078;11.522;2024-01-30T05:08:14;7.70;;;4.90;;
61704;SDS011;47627;48.078;11.522;2024-01-30T05:10:40;7.55;;;4.50;;
61704;SDS011;47627;48.078;11.522;2024-01-30T05:13:05;7.57;;;4.57;;
61704;SDS011;47627;48.078;11.522;2024-01-30T05:15:30;7.22;;;4.57;;
61704;SDS011;47627;48.078;11.522;2024-01-30T05:17:55;6.97;;;4.25;;
61704;SDS011;47627;48.078;11.522;2024-01-30T05:20:21;6.05;;;4.00;;
61704;SDS011;47627;48.078;11.522;2024-01-30T05:22:46;6.90;;;4.15;;
61704;SDS011;47627;48.078;11.522;2024-01-30T05:25:12;7.47;;;4.53;;
61704;SDS011;47627;48.078;11.522;2024-01-30T05:27:37;7.05;;;4.45;;
61704;SDS011;47627;48.078;11.522;2024-01-30T05:30:03;6.50;;;4.20;;
61704;SDS011;47627;48.078;11.522;2024-01-30T05:32:28;9.48;;;4.30;;
61704;SDS011;47627;48.078;11.522;2024-01-30T05:34:53;7.22;;;4.35;;
61704;SDS011;47627;48.078;11.522;2024-01-30T05:37:18;5.43;;;3.90;;
61704;SDS011;47627;48.078;11.522;2024-01-30T05:39:44;6.47;;;4.32;;
61704;SDS011;47627;48.078;11.522;2024-01-30T05:42:09;8.55;;;4.15;;
61704;SDS011;47627;48.078;11.522;2024-01-30T05:44:35;6.85;;;4.35;;
61704;SDS011;47627;48.078;11.522;2024-01-30T05:47:00;6.93;;;4.18;;
61704;SDS011;47627;48.078;11.522;2024-01-30T05:49:25;6.57;;;4.28;;
61704;SDS011;47627;48.078;11.522;2024-01-30T05:51:50;7.82;;;4.05;;
61704;SDS011;47627;48.078;11.522;2024-01-30T05:54:16;7.85;;;4.20;;
61704;SDS011;47627;48.078;11.522;2024-01-30T05:56:41;5.07;;;3.90;;
61704;SDS011;47627;48.078;11.522;2024-01-30T05:59:06;9.20;;;4.72;;
61704;SDS011;47627;48.078;11.522;2024-01-30T06:01:31;8.05;;;4.22;;
61704;SDS011;47627;48.078;11.522;2024-01-30T06:03:57;7.57;;;4.15;;
61704;SDS011;47627;48.078;11.522;2024-01-30T06:06:22;6.85;;;4.55;;
61704;SDS011;47627;48.078;11.522;2024-01-30T06:08:47;6.57;;;4.20;;
61704;SDS011;47627;48.078;11.522;2024-01-30T06:11:12;6.18;;;4.13;;
61704;SDS011;47627;48.078;11.522;2024-01-30T06:13:38;6.03;;;4.18;;
61704;SDS011;47627;48.078;11.522;2024-01-30T06:16:03;5.82;;;4.22;;
61704;SDS011;47627;48.078;11.522;2024-01-30T06:18:29;6.85;;;4.45;;
61704;SDS011;47627;48.078;11.522;2024-01-30T06:20:56;7.65;;;4.65;;
61704;SDS011;47627;48.078;11.522;2024-01-30T06:23:21;11.48;;;4.47;;
61704;SDS011;47627;48.078;11.522;2024-01-30T06:25:46;7.45;;;4.57;;
61704;SDS011;47627;48.078;11.522;2024-01-30T06:28:12;7.43;;;4.18;;
61704;SDS011;47627;48.078;11.522;2024-01-30T06:30:37;7.53;;;4.43;;
61704;SDS011;47627;48.078;11.522;2024-01-30T06:33:02;10.23;;;4.22;;
61704;SDS011;47627;48.078;11.522;2024-01-30T06:35:28;7.63;;;3.40;;
61704;SDS011;47627;48.078;11.522;2024-01-30T06:37:54;6.45;;;3.83;;
61704;SDS011;47627;48.078;11.522;2024-01-30T06:40:19;8.00;;;4.35;;
61704;SDS011;47627;48.078;11.522;2024-01-30T06:42:44;10.90;;;3.75;;
61704;SDS011;47627;48.078;11.522;2024-01-30T06:45:09;8.35;;;3.63;;
61704;SDS011;47627;48.078;11.522;2024-01-30T06:47:35;7.30;;;3.60;;
61704;SDS011;47627;48.078;11.522;2024-01-30T06:50:00;4.95;;;3.75;;
61704;SDS011;47627;48.078;11.522;2024-01-30T06:52:27;5.90;;;3.60;;
61704;SDS011;47627;48.078;11.522;2024-01-30T06:54:52;5.85;;;3.72;;
61704;SDS011;47627;48.078;11.522;2024-01-30T06:57:17;6.63;;;3.35;;
61704;SDS011;47627;48.078;11.522;2024-01-30T06:59:43;5.03;;;3.13;;
61704;SDS011;47627;48.078;11.522;2024-01-30T07:02:08;5.93;;;3.58;;
61704;SDS011;47627;48.078;11.522;2024-01-30T07:04:34;4.55;;;3.17;;
61704;SDS011;47627;48.078;11.522;2024-01-30T07:06:59;5.30;;;3.80;;
61704;SDS011;47627;48.078;11.522;2024-01-30T07:09:24;9.38;;;3.65;;
61704;SDS011;47627;48.078;11.522;2024-01-30T07:11:50;6.35;;;3.55;;
61704;SDS011;47627;48.078;11.522;2024-01-30T07:14:15;7.03;;;3.45;;
61704;SDS011;47627;48.078;11.522;2024-01-30T07:16:40;5.53;;;2.80;;
61704;SDS011;47627;48.078;11.522;2024-01-30T07:19:05;4.10;;;2.90;;
61704;SDS011;47627;48.078;11.522;2024-01-30T07:21:31;3.78;;;2.80;;
61704;SDS011;47627;48.078;11.522;2024-01-30T07:23:56;5.28;;;3.15;;
61704;SDS011;47627;48.078;11.522;2024-01-30T07:26:21;5.10;;;2.83;;
61704;SDS011;47627;48.078;11.522;2024-01-30T07:28:47;5.20;;;2.83;;
61704;SDS011;47627;48.078;11.522;2024-01-30T07:31:12;7.07;;;2.90;;
61704;SDS011;47627;48.078;11.522;2024-01-30T07:33:37;5.07;;;3.28;;
61704;SDS011;47627;48.078;11.522;2024-01-30T07:36:02;5.53;;;3.25;;
61704;SDS011;47627;48.078;11.522;2024-01-30T07:38:28;4.53;;;2.80;;
61704;SDS011;47627;48.078;11.522;2024-01-30T07:40:56;6.40;;;3.30;;
61704;SDS011;47627;48.078;11.522;2024-01-30T07:43:21;6.32;;;2.97;;
61704;SDS011;47627;48.078;11.522;2024-01-30T07:45:47;6.75;;;3.30;;
61704;SDS011;47627;48.078;11.522;2024-01-30T07:48:12;5.10;;;3.45;;
61704;SDS011;47627;48.078;11.522;2024-01-30T07:50:39;5.32;;;2.97;;
61704;SDS011;47627;48.078;11.522;2024-01-30T07:53:04;5.47;;;3.60;;
61704;SDS011;47627;48.078;11.522;2024-01-30T07:55:29;8.75;;;3.25;;
61704;SDS011;47627;48.078;11.522;2024-01-30T07:57:56;10.75;;;5.00;;
61704;SDS011;47627;48.078;11.522;2024-01-30T08:00:22;16.65;;;13.23;;
61704;SDS011;47627;48.078;11.522;2024-01-30T08:02:47;12.38;;;7.55;;
61704;SDS011;47627;48.078;11.522;2024-01-30T08:05:12;6.15;;;3.67;;
61704;SDS011;47627;48.078;11.522;2024-01-30T08:07:40;5.15;;;2.92;;
61704;SDS011;47627;48.078;11.522;2024-01-30T08:10:05;7.30;;;3.10;;
61704;SDS011;47627;48.078;11.522;2024-01-30T08:12:31;5.45;;;3.20;;
61704;SDS011;47627;48.078;11.522;2024-01-30T08:14:56;3.30;;;2.20;;
61704;SDS011;47627;48.078;11.522;2024-01-30T08:17:22;4.50;;;2.55;;
61704;SDS011;47627;48.078;11.522;2024-01-30T08:19:47;7.38;;;2.30;;
61704;SDS011;47627;48.078;11.522;2024-01-30T08:22:12;5.38;;;2.47;;
61704;SDS011;47627;48.078;11.522;2024-01-30T08:24:38;4.38;;;2.13;;
61704;SDS011;47627;48.078;11.522;2024-01-30T08:27:06;3.88;;;1.65;;
61704;SDS011;47627;48.078;11.522;2024-01-30T08:29:31;7.05;;;1.70;;
61704;SDS011;47627;48.078;11.522;2024-01-30T08:31:56;4.70;;;1.70;;
61704;SDS011;47627;48.078;11.522;2024-01-30T08:34:24;4.18;;;1.80;;
61704;SDS011;47627;48.078;11.522;2024-01-30T08:36:49;3.88;;;2.10;;
61704;SDS011;47627;48.078;11.522;2024-01-30T08:39:15;2.67;;;1.52;;
61704;SDS011;47627;48.078;11.522;2024-01-30T08:41:40;3.63;;;1.80;;
61704;SDS011;47627;48.078;11.522;2024-01-30T08:44:05;4.53;;;2.05;;
61704;SDS011;47627;48.078;11.522;2024-01-30T08:46:31;4.75;;;2.13;;
61704;SDS011;47627;48.078;11.522;2024-01-30T08:48:56;11.55;;;3.55;;
61704;SDS011;47627;48.078;11.522;2024-01-30T08:51:21;8.80;;;3.00;;
61704;SDS011;47627;48.078;11.522;2024-01-30T08:53:47;13.60;;;5.40;;
61704;SDS011;47627;48.078;11.522;2024-01-30T08:56:12;73.55;;;41.83;;
61704;SDS011;47627;48.078;11.522;2024-01-30T08:58:38;9.60;;;7.78;;
61704;SDS011;47627;48.078;11.522;2024-01-30T09:01:04;5.07;;;2.63;;
61704;SDS011;47627;48.078;11.522;2024-01-30T09:03:30;5.40;;;2.17;;
61704;SDS011;47627;48.078;11.522;2024-01-30T09:05:56;5.40;;;1.90;;
61704;SDS011;47627;48.078;11.522;2024-01-30T09:08:21;9.68;;;2.67;;
61704;SDS011;47627;48.078;11.522;2024-01-30T09:10:46;2.63;;;1.50;;
61704;SDS011;47627;48.078;11.522;2024-01-30T09:13:11;4.75;;;1.73;;
61704;SDS011;47627;48.078;11.522;2024-01-30T09:15:37;3.22;;;1.92;;
61704;SDS011;47627;48.078;11.522;2024-01-30T09:18:02;6.03;;;1.75;;
61704;SDS011;47627;48.078;11.522;2024-01-30T09:20:27;3.38;;;1.70;;
61704;SDS011;47627;48.078;11.522;2024-01-30T09:22:52;2.28;;;1.55;;
61704;SDS011;47627;48.078;11.522;2024-01-30T09:25:18;2.47;;;1.55;;
61704;SDS011;47627;48.078;11.522;2024-01-30T09:27:43;2.47;;;1.60;;
61704;SDS011;47627;48.078;11.522;2024-01-30T09:30:09;3.72;;;1.42;;
61704;SDS011;47627;48.078;11.522;2024-01-30T09:32:34;2.85;;;1.67;;
61704;SDS011;47627;48.078;11.522;2024-01-30T09:34:59;3.63;;;1.42;;
61704;SDS011;47627;48.078;11.522;2024-01-30T09:37:25;3.90;;;1.65;;
61704;SDS011;47627;48.078;11.522;2024-01-30T09:39:50;4.45;;;1.70;;
61704;SDS011;47627;48.078;11.522;2024-01-30T09:42:26;2.60;;;1.60;;
61704;SDS011;47627;48.078;11.522;2024-01-30T09:44:52;2.97;;;1.77;;
61704;SDS011;47627;48.078;11.522;2024-01-30T09:47:18;4.70;;;1.50;;
61704;SDS011;47627;48.078;11.522;2024-01-30T09:49:44;2.08;;;1.50;;
61704;SDS011;47627;48.078;11.522;2024-01-30T09:52:09;4.28;;;1.30;;
61704;SDS011;47627;48.078;11.522;2024-01-30T09:54:34;4.10;;;1.70;;
61704;SDS011;47627;48.078;11.522;2024-01-30T09:57:00;4.95;;;1.63;;
61704;SDS011;47627;48.078;11.522;2024-01-30T09:59:25;2.55;;;1.90;;
61704;SDS011;47627;48.078;11.522;2024-01-30T10:01:50;3.25;;;1.92;;
61704;SDS011;47627;48.078;11.522;2024-01-30T10:04:16;3.33;;;2.10;;
61704;SDS011;47627;48.078;11.522;2024-01-30T10:06:41;5.57;;;1.95;;
61704;SDS011;47627;48.078;11.522;2024-01-30T10:09:13;3.38;;;1.70;;
61704;SDS011;47627;48.078;11.522;2024-01-30T10:11:38;2.92;;;1.92;;
61704;SDS011;47627;48.078;11.522;2024-01-30T10:14:04;4.72;;;2.05;;
61704;SDS011;47627;48.078;11.522;2024-01-30T10:16:29;5.32;;;1.90;;
61704;SDS011;47627;48.078;11.522;2024-01-30T10:18:55;5.45;;;2.15;;
61704;SDS011;47627;48.078;11.522;2024-01-30T10:21:21;2.40;;;1.60;;
61704;SDS011;47627;48.078;11.522;2024-01-30T10:23:46;4.40;;;1.60;;
61704;SDS011;47627;48.078;11.522;2024-01-30T10:26:11;5.47;;;1.70;;
61704;SDS011;47627;48.078;11.522;2024-01-30T10:28:36;7.18;;;1.83;;
61704;SDS011;47627;48.078;11.522;2024-01-30T10:31:02;3.58;;;1.77;;
61704;SDS011;47627;48.078;11.522;2024-01-30T10:33:30;2.60;;;1.40;;
61704;SDS011;47627;48.078;11.522;2024-01-30T10:36:03;2.78;;;1.58;;
61704;SDS011;47627;48.078;11.522;2024-01-30T10:38:29;3.22;;;1.50;;
61704;SDS011;47627;48.078;11.522;2024-01-30T10:40:59;3.20;;;1.25;;
61704;SDS011;47627;48.078;11.522;2024-01-30T10:43:30;4.75;;;1.42;;
61704;SDS011;47627;48.078;11.522;2024-01-30T10:45:57;4.00;;;1.13;;
61704;SDS011;47627;48.078;11.522;2024-01-30T10:48:23;1.83;;;1.50;;
61704;SDS011;47627;48.078;11.522;2024-01-30T10:50:51;3.10;;;1.35;;
61704;SDS011;47627;48.078;11.522;2024-01-30T10:53:19;2.47;;;1.30;;
61704;SDS011;47627;48.078;11.522;2024-01-30T10:55:45;3.20;;;1.38;;
61704;SDS011;47627;48.078;11.522;2024-01-30T10:58:11;2.22;;;1.52;;
61704;SDS011;47627;48.078;11.522;2024-01-30T11:00:37;1.98;;;1.40;;
61704;SDS011;47627;48.078;11.522;2024-01-30T11:03:03;4.03;;;1.90;;
61704;SDS011;47627;48.078;11.522;2024-01-30T11:05:29;2.25;;;1.25;;
61704;SDS011;47627;48.078;11.522;2024-01-30T11:07:54;4.07;;;1.50;;
61704;SDS011;47627;48.078;11.522;2024-01-30T11:10:19;2.88;;;1.60;;
61704;SDS011;47627;48.078;11.522;2024-01-30T11:12:45;2.25;;;1.27;;
61704;SDS011;47627;48.078;11.522;2024-01-30T11:15:14;4.18;;;1.35;;
61704;SDS011;47627;48.078;11.522;2024-01-30T11:17:41;4.43;;;1.42;;
61704;SDS011;47627;48.078;11.522;2024-01-30T11:20:09;2.95;;;1.50;;
61704;SDS011;47627;48.078;11.522;2024-01-30T11:22:34;3.28;;;1.30;;
61704;SDS011;47627;48.078;11.522;2024-01-30T11:25:01;2.67;;;1.40;;
61704;SDS011;47627;48.078;11.522;2024-01-30T11:27:28;4.70;;;1.35;;
61704;SDS011;47627;48.078;11.522;2024-01-30T11:30:03;5.75;;;1.38;;
61704;SDS011;47627;48.078;11.522;2024-01-30T11:32:28;4.22;;;1.63;;
61704;SDS011;47627;48.078;11.522;2024-01-30T11:34:54;4.13;;;1.48;;
61704;SDS011;47627;48.078;11.522;2024-01-30T11:37:19;3.30;;;1.90;;
61704;SDS011;47627;48.078;11.522;2024-01-30T11:39:45;4.05;;;1.60;;
61704;SDS011;47627;48.078;11.522;2024-01-30T11:42:11;3.03;;;1.38;;
61704;SDS011;47627;48.078;11.522;2024-01-30T11:44:36;2.20;;;1.25;;
61704;SDS011;47627;48.078;11.522;2024-01-30T11:47:02;3.38;;;1.00;;
61704;SDS011;47627;48.078;11.522;2024-01-30T11:49:28;2.53;;;1.17;;
61704;SDS011;47627;48.078;11.522;2024-01-30T11:51:53;4.20;;;1.33;;
61704;SDS011;47627;48.078;11.522;2024-01-30T11:54:19;4.80;;;1.48;;
61704;SDS011;47627;48.078;11.522;2024-01-30T11:56:44;1.80;;;1.25;;
61704;SDS011;47627;48.078;11.522;2024-01-30T11:59:10;2.00;;;1.10;;
61704;SDS011;47627;48.078;11.522;2024-01-30T12:01:35;2.13;;;1.05;;
61704;SDS011;47627;48.078;11.522;2024-01-30T12:04:01;2.25;;;1.05;;
61704;SDS011;47627;48.078;11.522;2024-01-30T12:06:26;1.65;;;1.15;;
61704;SDS011;47627;48.078;11.522;2024-01-30T12:08:58;1.55;;;1.20;;
61704;SDS011;47627;48.078;11.522;2024-01-30T12:11:24;1.85;;;1.20;;
61704;SDS011;47627;48.078;11.522;2024-01-30T12:13:50;2.15;;;1.15;;
61704;SDS011;47627;48.078;11.522;2024-01-30T12:16:16;2.63;;;1.27;;
61704;SDS011;47627;48.078;11.522;2024-01-30T12:18:42;1.38;;;1.00;;
61704;SDS011;47627;48.078;11.522;2024-01-30T12:21:07;1.60;;;0.98;;
61704;SDS011;47627;48.078;11.522;2024-01-30T12:23:35;3.35;;;1.15;;
61704;SDS011;47627;48.078;11.522;2024-01-30T12:26:01;1.10;;;1.00;;
61704;SDS011;47627;48.078;11.522;2024-01-30T12:28:27;1.77;;;1.10;;
61704;SDS011;47627;48.078;11.522;2024-01-30T12:31:01;1.48;;;1.05;;
61704;SDS011;47627;48.078;11.522;2024-01-30T12:33:28;2.97;;;1.13;;
61704;SDS011;47627;48.078;11.522;2024-01-30T12:35:53;3.95;;;1.30;;
61704;SDS011;47627;48.078;11.522;2024-01-30T12:38:19;2.33;;;1.00;;
61704;SDS011;47627;48.078;11.522;2024-01-30T12:40:44;2.20;;;1.10;;
61704;SDS011;47627;48.078;11.522;2024-01-30T12:43:10;1.88;;;1.33;;
61704;SDS011;47627;48.078;11.522;2024-01-30T12:45:35;2.17;;;1.20;;
61704;SDS011;47627;48.078;11.522;2024-01-30T12:48:02;4.13;;;1.15;;
61704;SDS011;47627;48.078;11.522;2024-01-30T12:50:27;3.13;;;1.35;;
61704;SDS011;47627;48.078;11.522;2024-01-30T12:52:53;3.20;;;1.20;;
61704;SDS011;47627;48.078;11.522;2024-01-30T12:55:18;2.15;;;1.50;;
61704;SDS011;47627;48.078;11.522;2024-01-30T12:57:43;1.90;;;1.30;;
61704;SDS011;47627;48.078;11.522;2024-01-30T13:00:08;2.00;;;1.20;;
61704;SDS011;47627;48.078;11.522;2024-01-30T13:02:34;3.08;;;1.23;;
61704;SDS011;47627;48.078;11.522;2024-01-30T13:05:04;1.40;;;1.25;;
61704;SDS011;47627;48.078;11.522;2024-01-30T13:07:29;2.15;;;1.20;;
61704;SDS011;47627;48.078;11.522;2024-01-30T13:09:55;2.17;;;1.40;;
61704;SDS011;47627;48.078;11.522;2024-01-30T13:12:20;1.40;;;1.13;;
61704;SDS011;47627;48.078;11.522;2024-01-30T13:14:45;3.53;;;1.20;;
61704;SDS011;47627;48.078;11.522;2024-01-30T13:17:10;1.75;;;1.17;;
61704;SDS011;47627;48.078;11.522;2024-01-30T13:19:36;3.50;;;1.30;;
61704;SDS011;47627;48.078;11.522;2024-01-30T13:22:01;2.28;;;1.10;;
61704;SDS011;47627;48.078;11.522;2024-01-30T13:24:26;1.88;;;1.00;;
61704;SDS011;47627;48.078;11.522;2024-01-30T13:26:52;2.50;;;1.25;;
61704;SDS011;47627;48.078;11.522;2024-01-30T13:29:18;1.58;;;1.00;;
61704;SDS011;47627;48.078;11.522;2024-01-30T13:31:43;6.68;;;1.63;;
61704;SDS011;47627;48.078;11.522;2024-01-30T13:34:11;3.60;;;1.38;;
61704;SDS011;47627;48.078;11.522;2024-01-30T13:36:36;1.13;;;0.90;;
61704;SDS011;47627;48.078;11.522;2024-01-30T13:39:01;1.70;;;1.25;;
61704;SDS011;47627;48.078;11.522;2024-01-30T13:41:27;1.67;;;1.35;;
61704;SDS011;47627;48.078;11.522;2024-01-30T13:43:53;2.42;;;1.70;;
61704;SDS011;47627;48.078;11.522;2024-01-30T13:46:18;3.55;;;1.50;;
61704;SDS011;47627;48.078;11.522;2024-01-30T13:48:44;3.53;;;1.25;;
61704;SDS011;47627;48.078;11.522;2024-01-30T13:51:09;4.43;;;1.20;;
61704;SDS011;47627;48.078;11.522;2024-01-30T13:53:36;4.75;;;1.50;;
61704;SDS011;47627;48.078;11.522;2024-01-30T13:56:01;3.95;;;1.38;;
61704;SDS011;47627;48.078;11.522;2024-01-30T13:58:26;4.65;;;1.40;;
61704;SDS011;47627;48.078;11.522;2024-01-30T14:00:52;2.45;;;1.30;;
61704;SDS011;47627;48.078;11.522;2024-01-30T14:03:17;4.13;;;1.38;;
61704;SDS011;47627;48.078;11.522;2024-01-30T14:05:42;4.35;;;1.30;;
61704;SDS011;47627;48.078;11.522;2024-01-30T14:08:09;4.50;;;1.10;;
61704;SDS011;47627;48.078;11.522;2024-01-30T14:10:34;3.50;;;1.20;;
61704;SDS011;47627;48.078;11.522;2024-01-30T14:12:59;3.88;;;1.33;;
61704;SDS011;47627;48.078;11.522;2024-01-30T14:15:24;5.72;;;1.70;;
61704;SDS011;47627;48.078;11.522;2024-01-30T14:17:50;4.57;;;1.30;;
61704;SDS011;47627;48.078;11.522;2024-01-30T14:20:15;3.00;;;1.42;;
61704;SDS011;47627;48.078;11.522;2024-01-30T14:22:43;2.25;;;1.50;;